Bringhurst, Indiana
Current Conditions -  °F | °C
As of 11:55 PM on Saturday 22 Nov 2014 (Local Time) from KGGP Reporting Station
Moderate Rain Moderate Rain  
Wind Chill: 39°   Ceiling: 8000
Heat Index: 45°   Visibility: 7mi
Dew Point: 43°   Wind: 12mph
Humidity: 93%   Direction: 180°S
Pressure: 29.96"   Gusts: NA
Location:  40.53°N, 86.52°W
Report Text: KGGP 230455Z AUTO 18010KT 7SM RA OVC080 07/06 A2996 RMK AO2 P0006
Loading
Personal Weather Stations






























Interactive Weather Map New forecast layout! Learn more

10-Day Weather Forecast

Advertisements
Track Severe Weather on mobile